Time;durP1;ratioP1;P1;durP2;ratioP2;P2;SDS_P1;SDS_P2;PMS_P1;PMS_P2;Temp;Humidity;BMP_temperature;BMP_pressure;BME280_temperature;BME280_humidity;BME280_pressure;Samples;Min_cycle;Max_cycle;Signal;HPM_P1;HPM_P2
2021/09/10 00:00:31;;;;;;;9.80;7.40;;;21.50;99.90;;;;;;4896828;29;20044;-73
2021/09/10 00:02:56;;;;;;;11.23;7.28;;;21.50;99.90;;;;;;4895782;29;20049;-72
2021/09/10 00:05:22;;;;;;;12.63;7.72;;;21.50;99.90;;;;;;4895727;29;20410;-72
2021/09/10 00:07:48;;;;;;;15.23;8.35;;;21.50;99.90;;;;;;4895629;29;20052;-72
2021/09/10 00:10:13;;;;;;;12.32;7.82;;;21.50;99.90;;;;;;4899345;29;20044;-72
2021/09/10 00:12:39;;;;;;;14.68;9.40;;;21.50;99.90;;;;;;4914094;29;20111;-73
2021/09/10 00:15:05;;;;;;;17.63;9.80;;;21.40;99.90;;;;;;4900454;29;20025;-72
2021/09/10 00:17:31;;;;;;;13.57;9.00;;;21.40;99.90;;;;;;4898865;29;20131;-72
2021/09/10 00:19:57;;;;;;;17.08;9.43;;;21.40;99.90;;;;;;4915501;29;20123;-72
2021/09/10 00:22:22;;;;;;;15.38;9.80;;;21.40;99.90;;;;;;4899849;29;20020;-73
2021/09/10 00:24:48;;;;;;;15.52;9.90;;;21.40;99.90;;;;;;4900685;29;20032;-73
2021/09/10 00:27:13;;;;;;;19.75;9.75;;;21.40;99.90;;;;;;4900299;29;20033;-73
2021/09/10 00:29:41;;;;;;;17.48;9.93;;;21.40;99.90;;;;;;4899349;29;20029;-73
2021/09/10 00:32:07;;;;;;;14.77;9.00;;;21.40;99.90;;;;;;4899085;29;20056;-73
2021/09/10 00:34:33;;;;;;;16.73;10.18;;;21.30;99.90;;;;;;4898686;29;20556;-73
2021/09/10 00:36:58;;;;;;;15.38;9.77;;;21.40;99.90;;;;;;4899270;29;20021;-72
2021/09/10 00:39:24;;;;;;;15.07;9.65;;;21.30;99.90;;;;;;4914713;29;20045;-73
2021/09/10 00:41:49;;;;;;;13.10;9.05;;;21.30;99.90;;;;;;4900559;29;20469;-72
2021/09/10 00:44:15;;;;;;;12.73;9.73;;;21.30;99.90;;;;;;4900256;29;20028;-73
2021/09/10 00:46:41;;;;;;;17.80;10.93;;;21.20;99.90;;;;;;4900366;29;20047;-73
2021/09/10 00:49:08;;;;;;;15.88;11.27;;;21.20;99.90;;;;;;4900347;29;20421;-72
2021/09/10 00:51:33;;;;;;;14.63;10.60;;;21.20;99.90;;;;;;4899724;29;20032;-72
2021/09/10 00:53:59;;;;;;;14.40;10.15;;;21.20;99.90;;;;;;4899975;29;20032;-73
2021/09/10 00:56:25;;;;;;;19.23;10.75;;;21.20;99.90;;;;;;4899776;29;20028;-73
2021/09/10 00:58:51;;;;;;;20.27;10.60;;;21.10;99.90;;;;;;4900274;29;20554;-73
2021/09/10 01:01:17;;;;;;;15.02;9.73;;;21.10;99.90;;;;;;4899849;29;20028;-73
2021/09/10 01:03:43;;;;;;;17.45;11.40;;;21.10;99.90;;;;;;4897864;29;20107;-72
2021/09/10 01:06:10;;;;;;;17.10;10.25;;;21.00;99.90;;;;;;4899333;29;20029;-72
2021/09/10 01:08:37;;;;;;;19.98;11.75;;;21.00;99.90;;;;;;4899854;29;20032;-73
2021/09/10 01:11:03;;;;;;;;;;;21.00;99.90;;;;;;4899429;29;20426;-73
2021/09/10 01:13:31;;;;;;;17.52;11.32;;;21.00;99.90;;;;;;4898687;29;19939;-73
2021/09/10 01:15:57;;;;;;;20.58;12.80;;;21.00;99.90;;;;;;4899478;29;20409;-73
2021/09/10 01:18:23;;;;;;;21.85;12.50;;;20.90;99.90;;;;;;4912676;29;20111;-72
2021/09/10 01:20:49;;;;;;;17.73;11.10;;;20.90;99.90;;;;;;4899215;29;20028;-73
2021/09/10 01:23:16;;;;;;;22.48;12.75;;;20.90;99.90;;;;;;4899292;29;20033;-73
2021/09/10 01:25:42;;;;;;;18.15;12.07;;;20.90;99.90;;;;;;4913611;29;20123;-73
2021/09/10 01:28:09;;;;;;;17.00;12.00;;;20.90;99.90;;;;;;4899046;29;20049;-72
2021/09/10 01:30:37;;;;;;;18.83;12.57;;;20.90;99.90;;;;;;4899346;29;20485;-73
2021/09/10 01:33:05;;;;;;;;;;;20.90;99.90;;;;;;4888530;29;20120;-73
2021/09/10 01:35:30;;;;;;;17.67;11.45;;;20.90;99.90;;;;;;4899589;29;19951;-73
2021/09/10 01:37:56;;;;;;;19.27;10.90;;;20.90;99.90;;;;;;4900101;29;20067;-73
2021/09/10 01:40:23;;;;;;;22.13;12.35;;;20.90;99.90;;;;;;4900039;29;20025;-74
2021/09/10 01:42:49;;;;;;;17.70;11.75;;;20.90;99.90;;;;;;4899204;29;20100;-73
2021/09/10 01:45:15;;;;;;;22.35;13.23;;;20.90;99.90;;;;;;4898683;29;20100;-73
2021/09/10 01:47:41;;;;;;;24.88;12.50;;;20.90;99.90;;;;;;4898946;29;20482;-73
2021/09/10 01:50:09;;;;;;;18.55;12.63;;;20.90;99.90;;;;;;4898730;29;20056;-73
2021/09/10 01:52:35;;;;;;;17.50;12.48;;;20.90;99.90;;;;;;4898214;29;20071;-74
2021/09/10 01:55:01;;;;;;;17.40;12.18;;;20.90;99.90;;;;;;4896968;29;20069;-74
2021/09/10 01:57:26;;;;;;;19.85;12.10;;;20.90;99.90;;;;;;4898701;29;20024;-73
2021/09/10 01:59:52;;;;;;;19.23;12.05;;;20.80;99.90;;;;;;4898446;29;20016;-73
2021/09/10 02:02:18;;;;;;;21.52;13.07;;;20.80;99.90;;;;;;4912280;29;20037;-73
2021/09/10 02:04:44;;;;;;;21.65;13.02;;;20.80;99.90;;;;;;4898197;29;20131;-73
2021/09/10 02:07:09;;;;;;;18.80;12.98;;;20.80;99.90;;;;;;4898603;29;20043;-73
2021/09/10 02:09:35;;;;;;;22.00;13.85;;;20.70;99.90;;;;;;4897189;29;20031;-73
2021/09/10 02:12:04;;;;;;;18.42;12.75;;;20.70;99.90;;;;;;4898149;29;20072;-73
2021/09/10 02:14:34;;;;;;;27.70;14.10;;;20.70;99.90;;;;;;4897997;29;20032;-73
2021/09/10 02:17:01;;;;;;;20.17;12.98;;;20.70;99.90;;;;;;4897951;29;20112;-73
2021/09/10 02:19:26;;;;;;;18.90;13.07;;;20.60;99.90;;;;;;4880255;29;20021;-73
2021/09/10 02:21:52;;;;;;;24.05;14.70;;;20.60;99.90;;;;;;4888814;29;20085;-73
2021/09/10 02:24:18;;;;;;;21.25;13.80;;;20.50;99.90;;;;;;4898337;29;20031;-73
2021/09/10 02:26:44;;;;;;;23.92;13.48;;;20.50;99.90;;;;;;4898010;29;20064;-73
2021/09/10 02:29:10;;;;;;;26.25;14.10;;;20.40;99.90;;;;;;4897937;29;20033;-73
2021/09/10 02:31:35;;;;;;;21.50;14.60;;;20.40;99.90;;;;;;4897647;29;20088;-73
2021/09/10 02:34:01;;;;;;;21.65;15.27;;;20.30;99.90;;;;;;4912482;29;20048;-72
2021/09/10 02:36:27;;;;;;;22.77;13.95;;;20.30;99.90;;;;;;4898156;29;20480;-72
2021/09/10 02:38:53;;;;;;;22.67;13.65;;;20.30;99.90;;;;;;4897817;29;20391;-73
2021/09/10 02:41:18;;;;;;;25.85;14.48;;;20.30;99.90;;;;;;4898092;29;20036;-72
2021/09/10 02:43:44;;;;;;;22.63;14.25;;;20.30;99.90;;;;;;4898854;29;20029;-73
2021/09/10 02:46:09;;;;;;;27.13;14.25;;;20.30;99.90;;;;;;4897583;29;20112;-73
2021/09/10 02:48:35;;;;;;;22.58;13.70;;;20.40;99.90;;;;;;4897992;29;20029;-72
2021/09/10 02:51:01;;;;;;;22.83;13.23;;;20.30;99.90;;;;;;4896912;29;20039;-73
2021/09/10 02:53:27;;;;;;;20.05;13.85;;;20.30;99.90;;;;;;4897770;29;20032;-73
2021/09/10 02:55:52;;;;;;;20.25;12.75;;;20.30;99.90;;;;;;4897803;29;20024;-73
2021/09/10 02:58:18;;;;;;;25.45;13.63;;;20.30;99.90;;;;;;4897705;29;20033;-73
2021/09/10 03:00:44;;;;;;;25.83;14.57;;;20.30;99.90;;;;;;4897890;29;20024;-72
2021/09/10 03:03:10;;;;;;;18.63;13.32;;;20.30;99.90;;;;;;4896894;29;20092;-72
2021/09/10 03:05:35;;;;;;;23.58;13.90;;;20.30;99.90;;;;;;4897136;29;20070;-72
2021/09/10 03:08:01;;;;;;;24.92;13.75;;;20.30;99.90;;;;;;4897489;29;20111;-72
2021/09/10 03:10:27;;;;;;;21.55;13.40;;;20.30;99.90;;;;;;4897710;29;20402;-73
2021/09/10 03:12:53;;;;;;;27.02;13.02;;;20.30;99.90;;;;;;4895780;29;20486;-72
2021/09/10 03:15:18;;;;;;;23.40;13.93;;;20.30;99.90;;;;;;4897550;29;20035;-73
2021/09/10 03:17:44;;;;;;;23.98;13.43;;;20.30;99.90;;;;;;4897270;29;20040;-72
2021/09/10 03:20:11;;;;;;;21.85;13.52;;;20.30;99.90;;;;;;4896681;29;20105;-73
2021/09/10 03:22:37;;;;;;;25.08;14.35;;;20.30;99.90;;;;;;4897678;29;20383;-73
2021/09/10 03:25:04;;;;;;;20.40;13.25;;;20.30;99.90;;;;;;4897348;29;20470;-73
2021/09/10 03:27:30;;;;;;;19.92;12.10;;;20.30;99.90;;;;;;4895894;29;20028;-73
2021/09/10 03:29:56;;;;;;;21.35;11.95;;;20.20;99.90;;;;;;4912151;29;20075;-73
2021/09/10 03:32:21;;;;;;;23.35;13.43;;;20.30;99.90;;;;;;4895764;29;20478;-73
2021/09/10 03:34:47;;;;;;;19.15;11.55;;;20.30;99.90;;;;;;4897927;29;20035;-72
2021/09/10 03:37:13;;;;;;;16.48;11.60;;;20.30;99.90;;;;;;4897407;29;20024;-73
2021/09/10 03:39:40;;;;;;;18.88;11.57;;;20.30;99.90;;;;;;4896816;29;20040;-73
2021/09/10 03:42:06;;;;;;;18.42;12.57;;;20.30;99.90;;;;;;4900211;29;20490;-72
2021/09/10 03:44:31;;;;;;;16.48;11.48;;;20.40;99.90;;;;;;4902114;29;20031;-73
2021/09/10 03:46:59;;;;;;;18.83;11.57;;;20.40;99.90;;;;;;4901417;29;20036;-73
2021/09/10 03:49:25;;;;;;;;;;;20.40;99.90;;;;;;4883662;29;20081;-73
2021/09/10 03:51:51;;;;;;;26.10;12.63;;;20.40;99.90;;;;;;4897878;29;19911;-73
2021/09/10 03:54:16;;;;;;;20.50;12.13;;;20.40;99.90;;;;;;4899572;29;20040;-73
2021/09/10 03:56:42;;;;;;;16.23;11.63;;;20.40;99.90;;;;;;4900715;29;20056;-72
2021/09/10 03:59:07;;;;;;;19.08;11.57;;;20.40;99.90;;;;;;4901015;29;20028;-73
2021/09/10 04:01:33;;;;;;;25.70;12.55;;;20.40;99.90;;;;;;4899076;29;20065;-73
2021/09/10 04:03:58;;;;;;;20.35;11.30;;;20.40;99.90;;;;;;4901134;29;20529;-73
2021/09/10 04:06:24;;;;;;;17.23;10.93;;;20.40;99.90;;;;;;4900980;29;20100;-73
2021/09/10 04:08:49;;;;;;;16.63;9.80;;;20.40;99.90;;;;;;4901479;29;20370;-73
2021/09/10 04:11:15;;;;;;;14.30;10.98;;;20.40;99.90;;;;;;4901081;29;20516;-73
2021/09/10 04:13:42;;;;;;;21.30;11.70;;;20.40;99.90;;;;;;4900417;29;20039;-73
2021/09/10 04:16:07;;;;;;;18.30;11.80;;;20.40;99.90;;;;;;4900836;29;20071;-73
2021/09/10 04:18:33;;;;;;;17.20;10.48;;;20.40;99.90;;;;;;4900997;29;20073;-73
2021/09/10 04:20:58;;;;;;;23.85;10.35;;;20.40;99.90;;;;;;4901177;29;20401;-72
2021/09/10 04:23:24;;;;;;;18.50;10.45;;;20.40;99.90;;;;;;4900280;29;20041;-73
2021/09/10 04:25:50;;;;;;;17.48;10.38;;;20.40;99.90;;;;;;4901326;29;20032;-72
2021/09/10 04:28:15;;;;;;;14.50;9.60;;;20.40;99.90;;;;;;4900154;29;20041;-72
2021/09/10 04:30:41;;;;;;;16.45;9.88;;;20.40;99.90;;;;;;4901234;29;20029;-73
2021/09/10 04:33:06;;;;;;;13.23;10.02;;;20.40;99.90;;;;;;4900439;29;20482;-74
2021/09/10 04:35:32;;;;;;;13.70;9.32;;;20.40;99.90;;;;;;4900938;29;20092;-73
2021/09/10 04:37:57;;;;;;;15.77;9.98;;;20.40;99.90;;;;;;4898921;29;20039;-73
2021/09/10 04:40:23;;;;;;;16.92;10.98;;;20.40;99.90;;;;;;4900622;29;20474;-73
2021/09/10 04:42:49;;;;;;;15.63;10.95;;;20.40;99.90;;;;;;4897839;29;20036;-73
2021/09/10 04:45:14;;;;;;;15.27;10.40;;;20.40;99.90;;;;;;4900673;29;20029;-73
2021/09/10 04:47:40;;;;;;;16.77;10.32;;;20.40;99.90;;;;;;4898458;29;20055;-73
2021/09/10 04:50:06;;;;;;;16.67;9.65;;;20.40;99.90;;;;;;4900008;29;20032;-73
2021/09/10 04:52:33;;;;;;;17.58;9.93;;;20.40;99.90;;;;;;4899285;29;20049;-73
2021/09/10 04:54:58;;;;;;;14.70;9.82;;;20.40;99.90;;;;;;4899863;29;20056;-73
2021/09/10 04:57:24;;;;;;;13.85;9.85;;;20.40;99.90;;;;;;4899594;29;20498;-74
2021/09/10 04:59:51;;;;;;;15.57;9.98;;;20.40;99.90;;;;;;4899257;29;20028;-73
2021/09/10 05:02:17;;;;;;;17.10;9.52;;;20.50;99.90;;;;;;4899565;29;20028;-73
2021/09/10 05:04:42;;;;;;;16.73;9.88;;;20.50;99.90;;;;;;4899805;29;20414;-73
2021/09/10 05:07:08;;;;;;;15.63;9.70;;;20.50;99.90;;;;;;4899722;29;20371;-73
2021/09/10 05:09:33;;;;;;;20.17;10.35;;;20.50;99.90;;;;;;4900020;29;20033;-73
2021/09/10 05:11:59;;;;;;;14.23;8.85;;;20.50;99.90;;;;;;4900075;29;20449;-74
2021/09/10 05:14:25;;;;;;;19.65;9.70;;;20.50;99.90;;;;;;4899725;29;20024;-73
2021/09/10 05:16:50;;;;;;;15.45;9.27;;;20.60;99.90;;;;;;4898883;29;20068;-74
2021/09/10 05:19:16;;;;;;;14.45;9.55;;;20.60;99.90;;;;;;4899994;29;20111;-73
2021/09/10 05:21:41;;;;;;;19.88;9.90;;;20.60;99.90;;;;;;4899804;29;20056;-73
2021/09/10 05:24:07;;;;;;;16.58;9.10;;;20.60;99.90;;;;;;4899430;29;20093;-73
2021/09/10 05:26:33;;;;;;;16.02;10.30;;;20.50;99.90;;;;;;4897812;29;20036;-74
2021/09/10 05:28:58;;;;;;;12.63;8.85;;;20.60;99.90;;;;;;4899595;29;20035;-74
2021/09/10 05:31:25;;;;;;;14.98;8.50;;;20.50;99.90;;;;;;4899460;29;20485;-74
2021/09/10 05:33:51;;;;;;;11.85;8.23;;;20.50;99.90;;;;;;4913397;29;20044;-74
2021/09/10 05:36:17;;;;;;;13.15;9.43;;;20.50;99.90;;;;;;4898835;29;20121;-73
2021/09/10 05:38:42;;;;;;;14.93;9.10;;;20.50;99.90;;;;;;4897669;29;20037;-74
2021/09/10 05:41:08;;;;;;;17.20;9.93;;;20.50;99.90;;;;;;4897908;29;20031;-74
2021/09/10 05:43:34;;;;;;;18.70;10.32;;;20.50;99.90;;;;;;4897836;29;20025;-74
2021/09/10 05:46:00;;;;;;;12.88;8.75;;;20.50;99.90;;;;;;4899002;29;20021;-73
2021/09/10 05:48:26;;;;;;;21.58;10.05;;;20.50;99.90;;;;;;4899349;29;20035;-74
2021/09/10 05:50:51;;;;;;;13.82;9.82;;;20.50;99.90;;;;;;4897753;29;20046;-74
2021/09/10 05:53:18;;;;;;;14.38;9.45;;;20.50;99.90;;;;;;4898083;29;20504;-73
2021/09/10 05:55:44;;;;;;;14.13;8.85;;;20.60;99.90;;;;;;4896894;29;20017;-73
2021/09/10 05:58:10;;;;;;;14.80;8.68;;;20.60;99.90;;;;;;4896992;29;20512;-74
2021/09/10 06:00:38;;;;;;;17.95;9.75;;;20.60;99.90;;;;;;4898856;29;20032;-74
2021/09/10 06:03:05;;;;;;;13.43;8.80;;;20.60;99.90;;;;;;4899123;29;20033;-73
2021/09/10 06:05:31;;;;;;;22.17;8.30;;;20.60;99.90;;;;;;4897534;29;20033;-73
2021/09/10 06:07:57;;;;;;;14.48;8.55;;;20.70;99.90;;;;;;4898225;29;20040;-73
2021/09/10 06:10:23;;;;;;;16.20;9.43;;;20.60;99.90;;;;;;4898095;29;20021;-74
2021/09/10 06:12:51;;;;;;;14.98;8.48;;;20.70;99.90;;;;;;4896996;29;20401;-73
2021/09/10 06:15:16;;;;;;;13.65;8.27;;;20.70;99.90;;;;;;4898860;29;20032;-74
2021/09/10 06:17:43;;;;;;;15.80;8.63;;;20.70;99.90;;;;;;4896511;29;20045;-73
2021/09/10 06:20:10;;;;;;;15.50;9.27;;;20.80;99.90;;;;;;4912861;29;20460;-73
2021/09/10 06:22:36;;;;;;;11.23;8.13;;;20.80;99.90;;;;;;4899674;29;20366;-73
2021/09/10 06:25:04;;;;;;;14.20;7.45;;;20.80;99.90;;;;;;4896650;29;20043;-73
2021/09/10 06:27:31;;;;;;;17.90;9.10;;;20.80;99.90;;;;;;4899801;29;20036;-72
2021/09/10 06:29:57;;;;;;;14.88;8.75;;;20.90;99.90;;;;;;4900016;29;20025;-73
2021/09/10 06:32:24;;;;;;;19.35;9.52;;;20.90;99.90;;;;;;4899585;29;20035;-73
2021/09/10 06:34:51;;;;;;;;;;;20.90;99.90;;;;;;4913790;29;20036;-73
2021/09/10 06:37:18;;;;;;;12.38;8.07;;;20.90;99.90;;;;;;4898782;29;19919;-72
2021/09/10 06:39:44;;;;;;;16.33;8.20;;;20.90;99.90;;;;;;4899316;29;20481;-73
2021/09/10 06:42:10;;;;;;;13.70;8.30;;;21.00;99.90;;;;;;4898036;29;20486;-72
2021/09/10 06:44:36;;;;;;;13.50;8.88;;;21.00;99.90;;;;;;4898948;29;20436;-73
2021/09/10 06:47:02;;;;;;;11.10;8.40;;;21.00;99.90;;;;;;4898833;29;20029;-73
2021/09/10 06:49:27;;;;;;;16.55;8.38;;;20.90;99.90;;;;;;4897898;29;20052;-73
2021/09/10 06:51:53;;;;;;;14.82;8.02;;;21.00;99.90;;;;;;4898774;29;20024;-73
2021/09/10 06:54:19;;;;;;;13.70;8.23;;;21.00;99.90;;;;;;4913558;29;20128;-73
2021/09/10 06:56:45;;;;;;;15.20;8.48;;;21.10;99.90;;;;;;4898722;29;20031;-73
2021/09/10 06:59:11;;;;;;;11.90;7.95;;;21.00;99.90;;;;;;4898726;29;20036;-73
2021/09/10 07:01:37;;;;;;;15.40;8.55;;;21.10;99.90;;;;;;4899338;29;20032;-73
2021/09/10 07:04:03;;;;;;;14.32;8.82;;;21.20;99.90;;;;;;4898453;29;20093;-74
2021/09/10 07:06:30;;;;;;;13.70;8.48;;;21.20;99.90;;;;;;4897866;29;20029;-74
2021/09/10 07:08:57;;;;;;;13.27;7.90;;;21.20;99.90;;;;;;4898963;29;20103;-74
2021/09/10 07:11:22;;;;;;;12.43;7.80;;;21.20;99.90;;;;;;4913757;29;20040;-73
2021/09/10 07:13:49;;;;;;;13.40;8.55;;;21.30;99.90;;;;;;4899500;29;20105;-73
2021/09/10 07:16:15;;;;;;;12.23;8.23;;;21.40;99.90;;;;;;4912578;29;20072;-73
2021/09/10 07:18:41;;;;;;;11.20;7.30;;;21.50;99.90;;;;;;4899872;29;20029;-73
2021/09/10 07:21:07;;;;;;;10.95;7.63;;;21.50;99.90;;;;;;4897458;29;20045;-73
2021/09/10 07:23:33;;;;;;;10.93;7.45;;;21.60;99.90;;;;;;4898784;29;20037;-73
2021/09/10 07:26:03;;;;;;;16.92;7.70;;;21.60;99.90;;;;;;4898725;29;20029;-73
2021/09/10 07:28:35;;;;;;;10.60;7.60;;;21.60;99.90;;;;;;4914752;29;20123;-73
2021/09/10 07:31:02;;;;;;;17.77;8.10;;;21.60;99.90;;;;;;4899250;29;20052;-73
2021/09/10 07:33:28;;;;;;;12.02;7.60;;;21.60;99.90;;;;;;4899656;29;20051;-73
2021/09/10 07:35:54;;;;;;;8.02;6.65;;;21.60;99.90;;;;;;4899529;29;20025;-73
2021/09/10 07:38:20;;;;;;;11.82;7.13;;;21.70;99.90;;;;;;4898556;29;20031;-73
2021/09/10 07:40:47;;;;;;;10.05;7.15;;;21.70;99.90;;;;;;4899497;29;20425;-73
2021/09/10 07:43:12;;;;;;;14.57;6.70;;;21.70;99.90;;;;;;4912066;29;20111;-74
2021/09/10 07:45:38;;;;;;;11.70;7.18;;;21.80;99.90;;;;;;4899036;29;20493;-73
2021/09/10 07:48:05;;;;;;;7.97;6.35;;;21.80;99.90;;;;;;4914497;29;20072;-74
2021/09/10 07:50:31;;;;;;;9.85;6.57;;;21.90;99.90;;;;;;4912119;29;20054;-73
2021/09/10 07:52:56;;;;;;;10.82;7.85;;;21.90;99.90;;;;;;4898513;29;20107;-74
2021/09/10 07:55:22;;;;;;;13.40;7.50;;;21.90;99.90;;;;;;4897081;29;20048;-73
2021/09/10 07:57:48;;;;;;;9.23;6.50;;;22.00;99.90;;;;;;4897562;29;20037;-75
2021/09/10 08:00:17;;;;;;;9.93;6.63;;;22.00;99.90;;;;;;4913312;29;20040;-74
2021/09/10 08:02:43;;;;;;;12.45;6.40;;;22.00;99.90;;;;;;4911907;29;20033;-72
2021/09/10 08:05:09;;;;;;;13.60;6.32;;;22.00;99.90;;;;;;4897538;29;20044;-73
2021/09/10 08:07:35;;;;;;;10.00;6.70;;;22.00;99.90;;;;;;4898767;29;20028;-73
2021/09/10 08:10:01;;;;;;;10.75;7.63;;;22.00;99.90;;;;;;4898318;29;20043;-73
2021/09/10 08:12:28;;;;;;;13.60;7.18;;;22.00;99.90;;;;;;4896556;29;20052;-74
2021/09/10 08:14:54;;;;;;;9.45;7.47;;;22.10;99.90;;;;;;4898175;29;20028;-74
2021/09/10 08:17:19;;;;;;;15.40;8.75;;;22.20;99.90;;;;;;4898737;29;20130;-74
2021/09/10 08:19:46;;;;;;;9.82;7.13;;;22.20;99.90;;;;;;4898446;29;20020;-71
2021/09/10 08:22:11;;;;;;;8.00;6.38;;;22.20;99.90;;;;;;4897413;29;20064;-74
2021/09/10 08:24:37;;;;;;;11.57;6.50;;;22.20;99.90;;;;;;4898171;29;20494;-73
2021/09/10 08:27:02;;;;;;;14.63;8.13;;;22.30;99.90;;;;;;4898752;29;20036;-73
2021/09/10 08:29:28;;;;;;;13.10;8.40;;;22.30;99.90;;;;;;4900682;29;20029;-73
2021/09/10 08:31:54;;;;;;;10.98;7.13;;;22.30;99.90;;;;;;4901162;29;20036;-72
2021/09/10 08:34:19;;;;;;;12.60;7.72;;;22.30;99.90;;;;;;4901689;29;20064;-72
2021/09/10 08:36:45;;;;;;;12.13;7.38;;;22.30;99.90;;;;;;4900771;29;20032;-72
2021/09/10 08:39:10;;;;;;;13.88;8.25;;;22.30;99.90;;;;;;4899996;29;20461;-73
2021/09/10 08:41:38;;;;;;;8.68;7.57;;;22.50;99.90;;;;;;4915919;29;20084;-72
2021/09/10 08:44:05;;;;;;;13.23;6.78;;;22.50;99.90;;;;;;4901573;29;20486;-74
2021/09/10 08:46:36;;;;;;;12.70;7.78;;;22.50;99.90;;;;;;4901085;29;20035;-73
2021/09/10 08:49:02;;;;;;;9.30;6.85;;;22.50;99.90;;;;;;4897630;29;20036;-72
2021/09/10 08:51:28;;;;;;;10.98;6.88;;;22.60;99.90;;;;;;4900721;29;20084;-72
2021/09/10 08:53:53;;;;;;;10.15;6.63;;;22.70;99.90;;;;;;4914893;29;20407;-73
2021/09/10 08:56:19;;;;;;;8.65;6.32;;;22.90;99.90;;;;;;4900841;29;20036;-72
2021/09/10 08:58:44;;;;;;;9.20;6.05;;;23.00;99.90;;;;;;4899839;29;20057;-72
2021/09/10 09:01:10;;;;;;;13.50;6.40;;;23.00;99.90;;;;;;4899954;29;20036;-71
2021/09/10 09:03:36;;;;;;;9.18;6.50;;;23.10;99.90;;;;;;4899392;29;20489;-71
2021/09/10 09:06:01;;;;;;;9.00;5.13;;;23.00;99.90;;;;;;4900239;29;20443;-72
2021/09/10 09:08:27;;;;;;;11.68;6.15;;;23.00;99.90;;;;;;4899140;29;20355;-73
2021/09/10 09:11:05;;;;;;;16.65;6.60;;;23.10;99.90;;;;;;4900550;29;20072;-73
2021/09/10 09:13:35;;;;;;;7.75;5.20;;;23.20;99.90;;;;;;4900372;29;20025;-72
2021/09/10 09:16:30;;;;;;;7.47;5.10;;;23.40;99.90;;;;;;4901141;29;20020;-77
2021/09/10 09:19:03;;;;;;;8.80;5.18;;;23.50;99.90;;;;;;4898695;29;20033;-76
2021/09/10 09:21:34;;;;;;;6.88;4.95;;;23.60;99.90;;;;;;4901589;29;20092;-77
2021/09/10 09:24:20;;;;;;;6.90;5.35;;;23.60;99.90;;;;;;4900534;29;20068;-72
2021/09/10 09:26:49;;;;;;;12.35;5.10;;;23.60;99.90;;;;;;4914347;29;20052;-72
2021/09/10 09:29:16;;;;;;;8.32;5.55;;;23.60;99.90;;;;;;4900739;29;20504;-72
2021/09/10 09:31:56;;;;;;;9.73;5.93;;;23.80;99.90;;;;;;4900173;29;20037;-72
2021/09/10 09:34:42;;;;;;;9.77;6.15;;;23.90;99.90;;;;;;4900205;29;20060;-72
2021/09/10 09:37:08;;;;;;;8.55;6.47;;;24.00;99.90;;;;;;4897260;29;20131;-74
2021/09/10 09:39:57;;;;;;;7.65;6.32;;;24.10;99.90;;;;;;4897987;29;20135;-73
2021/09/10 09:42:25;;;;;;;10.63;6.32;;;24.20;99.90;;;;;;4898737;29;20103;-76
2021/09/10 09:45:14;;;;;;;9.88;6.35;;;24.30;99.90;;;;;;4899764;29;20028;-73
2021/09/10 09:47:41;;;;;;;9.10;5.40;;;24.50;99.90;;;;;;4898565;29;20039;-72
2021/09/10 09:50:13;;;;;;;7.53;6.28;;;24.50;99.90;;;;;;4885797;29;20045;-73
2021/09/10 09:52:39;;;;;;;6.07;5.47;;;24.50;99.90;;;;;;4897085;29;20032;-72
2021/09/10 09:55:07;;;;;;;10.23;6.65;;;24.40;99.90;;;;;;4898586;29;20036;-72
2021/09/10 09:57:34;;;;;;;5.82;5.13;;;24.50;99.90;;;;;;4897027;29;20471;-73
2021/09/10 10:00:06;;;;;;;9.82;6.60;;;24.50;99.90;;;;;;4898508;29;20028;-72
2021/09/10 10:02:37;;;;;;;11.75;6.50;;;24.60;99.90;;;;;;4897985;29;20478;-73
2021/09/10 10:05:05;;;;;;;14.88;6.63;;;24.70;99.90;;;;;;4897647;29;20036;-72
2021/09/10 10:07:56;;;;;;;10.23;6.45;;;24.70;99.90;;;;;;4896863;29;20080;-72
2021/09/10 10:10:25;;;;;;;6.25;4.38;;;24.50;99.90;;;;;;4895033;29;20405;-72
2021/09/10 10:12:54;;;;;;;8.55;4.85;;;24.60;99.90;;;;;;4899574;29;20040;-72
2021/09/10 10:15:29;;;;;;;10.63;5.72;;;24.80;99.90;;;;;;4897899;29;20036;-73
2021/09/10 10:17:56;;;;;;;7.13;5.28;;;24.90;99.90;;;;;;4895035;29;20140;-72
2021/09/10 10:20:44;;;;;;;6.43;5.03;;;25.00;99.90;;;;;;4912369;29;20044;-72
2021/09/10 10:23:44;;;;;;;10.75;5.95;;;25.10;99.90;;;;;;4898541;29;20164;-72
2021/09/10 10:26:15;;;;;;;10.13;5.90;;;25.00;99.90;;;;;;4898738;29;20478;-72
2021/09/10 10:28:50;;;;;;;6.28;4.80;;;24.90;99.90;;;;;;4884621;29;20020;-72
2021/09/10 10:31:16;;;;;;;6.55;5.20;;;24.90;99.90;;;;;;4900066;29;20021;-73
2021/09/10 10:34:09;;;;;;;7.82;5.93;;;24.90;99.90;;;;;;4896637;29;20096;-73
2021/09/10 10:36:37;;;;;;;7.55;6.05;;;24.80;99.90;;;;;;4898542;29;20497;-72
2021/09/10 10:39:09;;;;;;;;;;;24.80;99.90;;;;;;4901164;29;20538;-72
2021/09/10 10:41:53;;;;;;;5.88;5.00;;;24.80;99.90;;;;;;4898341;29;20321;-73
2021/09/10 10:44:33;;;;;;;4.82;4.43;;;24.80;99.90;;;;;;4899134;29;20076;-71
2021/09/10 10:47:11;;;;;;;6.90;4.55;;;24.80;99.90;;;;;;4897477;29;20088;-72
2021/09/10 10:49:43;;;;;;;7.60;4.68;;;24.90;99.90;;;;;;4897445;29;20099;-72
2021/09/10 10:52:37;;;;;;;7.00;5.63;;;24.80;99.90;;;;;;4912919;29;20056;-72
2021/09/10 10:55:20;;;;;;;8.88;7.50;;;24.80;99.90;;;;;;4882587;29;20114;-72
2021/09/10 10:57:46;;;;;;;9.77;5.78;;;24.70;99.90;;;;;;4914043;29;20386;-71
2021/09/10 11:00:30;;;;;;;9.20;6.03;;;24.70;99.90;;;;;;4901462;29;20409;-72
2021/09/10 11:03:14;;;;;;;6.35;5.75;;;24.80;99.90;;;;;;4899961;29;20036;-73
2021/09/10 11:05:41;;;;;;;6.47;4.60;;;24.80;99.90;;;;;;4897632;29;20045;-73
2021/09/10 11:08:07;;;;;;;10.73;5.80;;;24.90;99.90;;;;;;4897814;29;20131;-73
2021/09/10 11:10:33;;;;;;;11.90;5.65;;;24.90;99.90;;;;;;4901014;29;20439;-72
2021/09/10 11:12:59;;;;;;;6.53;5.03;;;25.00;99.90;;;;;;4899499;29;20033;-72
2021/09/10 11:15:33;;;;;;;6.43;5.00;;;25.10;99.90;;;;;;4900097;29;20473;-72
2021/09/10 11:18:04;;;;;;;8.20;4.57;;;25.10;99.90;;;;;;4897353;29;20045;-72
2021/09/10 11:20:34;;;;;;;11.75;6.22;;;25.10;99.90;;;;;;4900815;29;20500;-72
2021/09/10 11:23:08;;;;;;;8.68;5.13;;;25.00;99.90;;;;;;4896084;29;20516;-71
2021/09/10 11:25:33;;;;;;;8.95;5.28;;;24.80;99.90;;;;;;4901537;29;20028;-71
2021/09/10 11:28:06;;;;;;;5.38;4.68;;;24.90;99.90;;;;;;4899547;29;20029;-73
2021/09/10 11:30:32;;;;;;;7.75;5.22;;;24.90;99.90;;;;;;4901011;29;20032;-72
2021/09/10 11:33:00;;;;;;;8.30;5.35;;;25.00;99.90;;;;;;4899927;29;20439;-72
2021/09/10 11:35:28;;;;;;;5.82;5.30;;;25.00;99.90;;;;;;4900123;29;20096;-73
2021/09/10 11:38:01;;;;;;;12.15;6.03;;;25.00;99.90;;;;;;4898586;29;20029;-73
2021/09/10 11:40:45;;;;;;;7.43;5.20;;;25.00;99.90;;;;;;4898566;29;20092;-73
2021/09/10 11:43:20;;;;;;;6.63;4.90;;;25.00;99.90;;;;;;4899914;29;20027;-73
2021/09/10 11:45:53;;;;;;;5.88;5.28;;;25.20;99.90;;;;;;4900186;29;20025;-73
2021/09/10 11:48:31;;;;;;;5.35;4.85;;;25.40;99.90;;;;;;4899132;29;20369;-73
2021/09/10 11:50:58;;;;;;;9.15;6.15;;;25.50;99.90;;;;;;4899896;29;20049;-73
2021/09/10 11:53:33;;;;;;;10.43;5.72;;;25.40;99.90;;;;;;4901815;29;20084;-72
2021/09/10 11:56:09;;;;;;;9.23;6.40;;;25.30;99.90;;;;;;4912088;29;20413;-73
2021/09/10 11:58:36;;;;;;;8.55;5.38;;;25.10;99.90;;;;;;4902534;29;20091;-73
2021/09/10 12:01:37;;;;;;;9.70;7.10;;;24.90;99.90;;;;;;4918083;29;20027;-71
2021/09/10 12:04:07;;;;;;;7.35;5.35;;;25.00;99.90;;;;;;4900602;29;20047;-72
2021/09/10 12:06:46;;;;;;;9.88;6.47;;;25.00;99.90;;;;;;4907385;29;20561;-72
2021/09/10 12:09:17;;;;;;;6.13;5.43;;;24.90;99.90;;;;;;4911973;29;20029;-74
2021/09/10 12:12:17;;;;;;;7.32;5.78;;;25.00;99.90;;;;;;4910896;29;20048;-74
2021/09/10 12:14:52;;;;;;;9.13;5.45;;;25.20;99.90;;;;;;4924959;29;20035;-72
2021/09/10 12:17:24;;;;;;;8.63;5.43;;;25.30;99.90;;;;;;4923178;29;20048;-73
2021/09/10 12:19:58;;;;;;;7.40;5.47;;;25.50;99.90;;;;;;4903831;29;20028;-73
2021/09/10 12:22:50;;;;;;;6.70;5.13;;;25.40;99.90;;;;;;4903589;29;20029;-73
2021/09/10 12:25:40;;;;;;;5.30;4.47;;;25.20;99.90;;;;;;4901493;29;20088;-73
2021/09/10 12:28:10;;;;;;;8.45;5.05;;;25.10;99.90;;;;;;4902782;29;20039;-74
2021/09/10 12:30:38;;;;;;;8.60;4.78;;;25.00;99.90;;;;;;4901130;29;20031;-72
2021/09/10 12:33:06;;;;;;;7.88;5.13;;;24.80;99.90;;;;;;4914855;29;20131;-71
2021/09/10 12:35:32;;;;;;;;;;;24.70;99.90;;;;;;4901685;29;20040;-71
2021/09/10 12:38:10;;;;;;;8.90;4.35;;;24.70;99.90;;;;;;4909699;29;20322;-71
2021/09/10 12:40:51;;;;;;;7.10;4.03;;;24.70;99.90;;;;;;4899170;29;20104;-71
2021/09/10 12:43:18;;;;;;;4.22;3.53;;;24.70;99.90;;;;;;4900068;29;20055;-71